sensor_id;sensor_type;location;lat;lon;timestamp;temperature;humidity
563;DHT22;266;49.514;8.294;2022-12-07T00:01:18;4.50;99.90
563;DHT22;266;49.514;8.294;2022-12-07T00:03:48;4.50;99.90
563;DHT22;266;49.514;8.294;2022-12-07T00:06:17;4.50;99.90
563;DHT22;266;49.514;8.294;2022-12-07T00:08:46;4.60;99.90
563;DHT22;266;49.514;8.294;2022-12-07T00:11:15;4.60;99.90
563;DHT22;266;49.514;8.294;2022-12-07T00:13:44;4.70;99.90
563;DHT22;266;49.514;8.294;2022-12-07T00:16:15;4.60;99.90
563;DHT22;266;49.514;8.294;2022-12-07T00:18:44;4.60;99.90
563;DHT22;266;49.514;8.294;2022-12-07T00:21:13;4.50;99.90
563;DHT22;266;49.514;8.294;2022-12-07T00:23:43;4.50;99.90
563;DHT22;266;49.514;8.294;2022-12-07T00:26:12;4.50;99.90
563;DHT22;266;49.514;8.294;2022-12-07T00:28:40;4.50;99.90
563;DHT22;266;49.514;8.294;2022-12-07T00:31:09;4.50;99.90
563;DHT22;266;49.514;8.294;2022-12-07T00:33:39;4.50;99.90
563;DHT22;266;49.514;8.294;2022-12-07T00:36:09;4.40;99.90
563;DHT22;266;49.514;8.294;2022-12-07T00:38:38;4.40;99.90
563;DHT22;266;49.514;8.294;2022-12-07T00:41:09;4.40;99.90
563;DHT22;266;49.514;8.294;2022-12-07T00:43:38;4.50;99.90
563;DHT22;266;49.514;8.294;2022-12-07T00:46:06;4.40;99.90
563;DHT22;266;49.514;8.294;2022-12-07T00:48:34;4.30;99.90
563;DHT22;266;49.514;8.294;2022-12-07T00:51:05;4.30;99.90
563;DHT22;266;49.514;8.294;2022-12-07T00:53:34;4.30;99.90
563;DHT22;266;49.514;8.294;2022-12-07T00:56:07;4.30;99.90
563;DHT22;266;49.514;8.294;2022-12-07T00:58:36;4.40;99.90
563;DHT22;266;49.514;8.294;2022-12-07T01:01:05;4.30;99.90
563;DHT22;266;49.514;8.294;2022-12-07T01:03:34;4.30;99.90
563;DHT22;266;49.514;8.294;2022-12-07T01:06:04;4.40;99.90
563;DHT22;266;49.514;8.294;2022-12-07T01:08:32;4.40;99.90
563;DHT22;266;49.514;8.294;2022-12-07T01:11:02;4.50;99.90
563;DHT22;266;49.514;8.294;2022-12-07T01:13:31;4.50;99.90
563;DHT22;266;49.514;8.294;2022-12-07T01:16:02;4.50;99.90
563;DHT22;266;49.514;8.294;2022-12-07T01:18:32;4.50;99.90
563;DHT22;266;49.514;8.294;2022-12-07T01:21:01;4.60;99.90
563;DHT22;266;49.514;8.294;2022-12-07T01:23:32;4.70;99.90
563;DHT22;266;49.514;8.294;2022-12-07T01:26:02;4.70;99.90
563;DHT22;266;49.514;8.294;2022-12-07T01:28:31;4.80;99.90
563;DHT22;266;49.514;8.294;2022-12-07T01:31:00;4.70;99.90
563;DHT22;266;49.514;8.294;2022-12-07T01:33:30;4.60;99.90
563;DHT22;266;49.514;8.294;2022-12-07T01:36:03;4.60;99.90
563;DHT22;266;49.514;8.294;2022-12-07T01:38:33;4.60;99.90
563;DHT22;266;49.514;8.294;2022-12-07T01:41:01;4.40;99.90
563;DHT22;266;49.514;8.294;2022-12-07T01:43:31;4.40;99.90
563;DHT22;266;49.514;8.294;2022-12-07T01:46:00;4.30;99.90
563;DHT22;266;49.514;8.294;2022-12-07T01:48:30;4.30;99.90
563;DHT22;266;49.514;8.294;2022-12-07T01:51:02;4.30;99.90
563;DHT22;266;49.514;8.294;2022-12-07T01:53:34;4.30;99.90
563;DHT22;266;49.514;8.294;2022-12-07T01:56:04;4.20;99.90
563;DHT22;266;49.514;8.294;2022-12-07T01:58:33;4.20;99.90
563;DHT22;266;49.514;8.294;2022-12-07T02:01:01;4.30;99.90
563;DHT22;266;49.514;8.294;2022-12-07T02:03:34;4.30;99.90
563;DHT22;266;49.514;8.294;2022-12-07T02:06:04;4.30;99.90
563;DHT22;266;49.514;8.294;2022-12-07T02:08:34;4.20;99.90
563;DHT22;266;49.514;8.294;2022-12-07T02:11:03;4.20;99.90
563;DHT22;266;49.514;8.294;2022-12-07T02:13:34;4.30;99.90
563;DHT22;266;49.514;8.294;2022-12-07T02:16:10;4.30;99.90
563;DHT22;266;49.514;8.294;2022-12-07T02:18:56;4.40;99.90
563;DHT22;266;49.514;8.294;2022-12-07T02:21:34;4.50;99.90
563;DHT22;266;49.514;8.294;2022-12-07T02:24:24;4.50;99.90
563;DHT22;266;49.514;8.294;2022-12-07T02:29:57;4.20;99.90
563;DHT22;266;49.514;8.294;2022-12-07T02:32:31;4.30;99.90
563;DHT22;266;49.514;8.294;2022-12-07T02:35:06;4.20;99.90
563;DHT22;266;49.514;8.294;2022-12-07T02:37:37;4.10;99.90
563;DHT22;266;49.514;8.294;2022-12-07T02:40:11;4.10;99.90
563;DHT22;266;49.514;8.294;2022-12-07T02:42:43;4.00;99.90
563;DHT22;266;49.514;8.294;2022-12-07T02:45:15;4.10;99.90
563;DHT22;266;49.514;8.294;2022-12-07T02:47:49;4.10;99.90
563;DHT22;266;49.514;8.294;2022-12-07T02:50:19;4.20;99.90
563;DHT22;266;49.514;8.294;2022-12-07T02:52:48;4.00;99.90
563;DHT22;266;49.514;8.294;2022-12-07T02:55:18;4.10;99.90
563;DHT22;266;49.514;8.294;2022-12-07T02:58:00;4.10;99.90
563;DHT22;266;49.514;8.294;2022-12-07T03:00:39;4.10;99.90
563;DHT22;266;49.514;8.294;2022-12-07T03:03:10;4.10;99.90
563;DHT22;266;49.514;8.294;2022-12-07T03:05:53;4.20;99.90
563;DHT22;266;49.514;8.294;2022-12-07T03:08:32;4.20;99.90
563;DHT22;266;49.514;8.294;2022-12-07T03:11:07;4.20;99.90
563;DHT22;266;49.514;8.294;2022-12-07T03:13:40;4.20;99.90
563;DHT22;266;49.514;8.294;2022-12-07T03:16:15;4.30;99.90
563;DHT22;266;49.514;8.294;2022-12-07T03:18:47;4.30;99.90
563;DHT22;266;49.514;8.294;2022-12-07T03:21:23;4.40;99.90
563;DHT22;266;49.514;8.294;2022-12-07T03:23:56;4.50;99.90
563;DHT22;266;49.514;8.294;2022-12-07T03:26:30;4.60;99.90
563;DHT22;266;49.514;8.294;2022-12-07T03:29:02;4.70;99.90
563;DHT22;266;49.514;8.294;2022-12-07T03:31:35;4.80;99.90
563;DHT22;266;49.514;8.294;2022-12-07T03:34:12;4.90;99.90
563;DHT22;266;49.514;8.294;2022-12-07T03:36:47;4.70;99.90
563;DHT22;266;49.514;8.294;2022-12-07T03:39:22;4.70;99.90
563;DHT22;266;49.514;8.294;2022-12-07T03:41:51;4.70;99.90
563;DHT22;266;49.514;8.294;2022-12-07T03:44:20;4.60;99.90
563;DHT22;266;49.514;8.294;2022-12-07T03:46:58;4.60;99.90
563;DHT22;266;49.514;8.294;2022-12-07T03:49:32;4.70;99.90
563;DHT22;266;49.514;8.294;2022-12-07T03:52:11;4.70;99.90
563;DHT22;266;49.514;8.294;2022-12-07T03:54:45;4.80;99.90
563;DHT22;266;49.514;8.294;2022-12-07T03:57:15;4.80;99.90
563;DHT22;266;49.514;8.294;2022-12-07T03:59:45;4.80;99.90
563;DHT22;266;49.514;8.294;2022-12-07T04:02:15;4.90;99.90
563;DHT22;266;49.514;8.294;2022-12-07T04:04:44;4.90;99.90
563;DHT22;266;49.514;8.294;2022-12-07T04:07:12;5.00;99.90
563;DHT22;266;49.514;8.294;2022-12-07T04:09:40;4.80;99.90
563;DHT22;266;49.514;8.294;2022-12-07T04:12:08;4.70;99.90
563;DHT22;266;49.514;8.294;2022-12-07T04:14:36;4.70;99.90
563;DHT22;266;49.514;8.294;2022-12-07T04:17:04;4.60;99.90
563;DHT22;266;49.514;8.294;2022-12-07T04:19:34;4.70;99.90
563;DHT22;266;49.514;8.294;2022-12-07T04:22:04;4.60;99.90
563;DHT22;266;49.514;8.294;2022-12-07T04:24:32;4.60;99.90
563;DHT22;266;49.514;8.294;2022-12-07T04:27:00;4.60;99.90
563;DHT22;266;49.514;8.294;2022-12-07T04:29:28;4.60;99.90
563;DHT22;266;49.514;8.294;2022-12-07T04:31:56;4.70;99.90
563;DHT22;266;49.514;8.294;2022-12-07T04:34:24;4.70;99.90
563;DHT22;266;49.514;8.294;2022-12-07T04:36:54;4.90;99.90
563;DHT22;266;49.514;8.294;2022-12-07T04:39:24;4.90;99.90
563;DHT22;266;49.514;8.294;2022-12-07T04:41:53;5.00;99.90
563;DHT22;266;49.514;8.294;2022-12-07T04:44:21;4.90;99.90
563;DHT22;266;49.514;8.294;2022-12-07T04:46:50;4.80;99.90
563;DHT22;266;49.514;8.294;2022-12-07T04:49:19;4.80;99.90
563;DHT22;266;49.514;8.294;2022-12-07T04:51:47;4.80;99.90
563;DHT22;266;49.514;8.294;2022-12-07T04:54:17;4.80;99.90
563;DHT22;266;49.514;8.294;2022-12-07T04:56:45;4.70;99.90
563;DHT22;266;49.514;8.294;2022-12-07T04:59:15;4.60;99.90
563;DHT22;266;49.514;8.294;2022-12-07T05:01:44;4.60;99.90
563;DHT22;266;49.514;8.294;2022-12-07T05:04:12;4.70;99.90
563;DHT22;266;49.514;8.294;2022-12-07T05:06:39;4.60;99.90
563;DHT22;266;49.514;8.294;2022-12-07T05:09:08;4.60;99.90
563;DHT22;266;49.514;8.294;2022-12-07T05:11:37;4.60;99.90
563;DHT22;266;49.514;8.294;2022-12-07T05:14:13;4.50;99.90
563;DHT22;266;49.514;8.294;2022-12-07T05:16:42;4.50;99.90
563;DHT22;266;49.514;8.294;2022-12-07T05:19:11;4.50;99.90
563;DHT22;266;49.514;8.294;2022-12-07T05:21:39;4.70;99.90
563;DHT22;266;49.514;8.294;2022-12-07T05:24:10;4.70;99.90
563;DHT22;266;49.514;8.294;2022-12-07T05:26:41;4.60;99.90
563;DHT22;266;49.514;8.294;2022-12-07T05:29:11;4.60;99.90
563;DHT22;266;49.514;8.294;2022-12-07T05:31:39;4.80;99.90
563;DHT22;266;49.514;8.294;2022-12-07T05:34:09;4.80;99.90
563;DHT22;266;49.514;8.294;2022-12-07T05:36:37;4.70;99.90
563;DHT22;266;49.514;8.294;2022-12-07T05:39:05;4.70;99.90
563;DHT22;266;49.514;8.294;2022-12-07T05:41:33;4.70;99.90
563;DHT22;266;49.514;8.294;2022-12-07T05:44:20;4.60;99.90
563;DHT22;266;49.514;8.294;2022-12-07T05:46:48;4.60;99.90
563;DHT22;266;49.514;8.294;2022-12-07T05:49:16;4.60;99.90
563;DHT22;266;49.514;8.294;2022-12-07T05:51:44;4.60;99.90
563;DHT22;266;49.514;8.294;2022-12-07T05:54:12;4.70;99.90
563;DHT22;266;49.514;8.294;2022-12-07T05:56:41;4.70;99.90
563;DHT22;266;49.514;8.294;2022-12-07T05:59:09;4.70;99.90
563;DHT22;266;49.514;8.294;2022-12-07T06:01:53;4.70;99.90
563;DHT22;266;49.514;8.294;2022-12-07T06:04:22;4.70;99.90
563;DHT22;266;49.514;8.294;2022-12-07T06:06:51;4.70;99.90
563;DHT22;266;49.514;8.294;2022-12-07T06:09:20;4.70;99.90
563;DHT22;266;49.514;8.294;2022-12-07T06:11:49;4.70;99.90
563;DHT22;266;49.514;8.294;2022-12-07T06:14:34;4.70;99.90
563;DHT22;266;49.514;8.294;2022-12-07T06:17:04;4.70;99.90
563;DHT22;266;49.514;8.294;2022-12-07T06:19:33;4.70;99.90
563;DHT22;266;49.514;8.294;2022-12-07T06:22:02;4.70;99.90
563;DHT22;266;49.514;8.294;2022-12-07T06:24:31;4.70;99.90
563;DHT22;266;49.514;8.294;2022-12-07T06:26:59;4.70;99.90
563;DHT22;266;49.514;8.294;2022-12-07T06:29:27;4.70;99.90
563;DHT22;266;49.514;8.294;2022-12-07T06:31:55;4.70;99.90
563;DHT22;266;49.514;8.294;2022-12-07T06:34:25;4.70;99.90
563;DHT22;266;49.514;8.294;2022-12-07T06:36:53;4.70;99.90
563;DHT22;266;49.514;8.294;2022-12-07T06:39:24;4.60;99.90
563;DHT22;266;49.514;8.294;2022-12-07T06:41:52;4.70;99.90
563;DHT22;266;49.514;8.294;2022-12-07T06:44:21;4.70;99.90
563;DHT22;266;49.514;8.294;2022-12-07T06:46:50;4.70;99.90
563;DHT22;266;49.514;8.294;2022-12-07T06:49:40;4.70;99.90
563;DHT22;266;49.514;8.294;2022-12-07T06:52:08;4.70;99.90
563;DHT22;266;49.514;8.294;2022-12-07T06:54:35;4.70;99.90
563;DHT22;266;49.514;8.294;2022-12-07T06:57:03;4.80;99.90
563;DHT22;266;49.514;8.294;2022-12-07T06:59:31;4.80;99.90
563;DHT22;266;49.514;8.294;2022-12-07T07:01:59;4.80;99.90
563;DHT22;266;49.514;8.294;2022-12-07T07:04:27;4.80;99.90
563;DHT22;266;49.514;8.294;2022-12-07T07:06:56;4.80;99.90
563;DHT22;266;49.514;8.294;2022-12-07T07:09:26;4.80;99.90
563;DHT22;266;49.514;8.294;2022-12-07T07:11:54;4.80;99.90
563;DHT22;266;49.514;8.294;2022-12-07T07:14:22;4.90;99.90
563;DHT22;266;49.514;8.294;2022-12-07T07:16:50;4.90;99.90
563;DHT22;266;49.514;8.294;2022-12-07T07:19:18;4.90;99.90
563;DHT22;266;49.514;8.294;2022-12-07T07:21:46;4.90;99.90
563;DHT22;266;49.514;8.294;2022-12-07T07:24:15;4.90;99.90
563;DHT22;266;49.514;8.294;2022-12-07T07:26:43;4.90;99.90
563;DHT22;266;49.514;8.294;2022-12-07T07:29:11;4.80;99.90
563;DHT22;266;49.514;8.294;2022-12-07T07:31:39;4.90;99.90
563;DHT22;266;49.514;8.294;2022-12-07T07:34:07;4.90;99.90
563;DHT22;266;49.514;8.294;2022-12-07T07:36:34;4.90;99.90
563;DHT22;266;49.514;8.294;2022-12-07T07:39:03;5.00;99.90
563;DHT22;266;49.514;8.294;2022-12-07T07:41:32;5.00;99.90
563;DHT22;266;49.514;8.294;2022-12-07T07:44:00;4.90;99.90
563;DHT22;266;49.514;8.294;2022-12-07T07:46:29;5.00;99.90
563;DHT22;266;49.514;8.294;2022-12-07T07:48:57;5.00;99.90
563;DHT22;266;49.514;8.294;2022-12-07T07:51:24;5.00;99.90
563;DHT22;266;49.514;8.294;2022-12-07T07:53:52;5.00;99.90
563;DHT22;266;49.514;8.294;2022-12-07T07:56:20;5.00;99.90
563;DHT22;266;49.514;8.294;2022-12-07T07:58:52;5.00;99.90
563;DHT22;266;49.514;8.294;2022-12-07T08:01:22;5.10;99.90
563;DHT22;266;49.514;8.294;2022-12-07T08:03:51;5.20;99.90
563;DHT22;266;49.514;8.294;2022-12-07T08:06:19;5.20;99.90
563;DHT22;266;49.514;8.294;2022-12-07T08:08:47;5.20;99.90
563;DHT22;266;49.514;8.294;2022-12-07T08:11:14;5.10;99.90
563;DHT22;266;49.514;8.294;2022-12-07T08:13:45;5.20;99.90
563;DHT22;266;49.514;8.294;2022-12-07T08:16:15;5.30;99.90
563;DHT22;266;49.514;8.294;2022-12-07T08:18:43;5.40;99.90
563;DHT22;266;49.514;8.294;2022-12-07T08:21:13;5.40;99.90
563;DHT22;266;49.514;8.294;2022-12-07T08:23:41;5.40;99.90
563;DHT22;266;49.514;8.294;2022-12-07T08:26:15;5.50;99.90
563;DHT22;266;49.514;8.294;2022-12-07T08:28:43;5.50;99.90
563;DHT22;266;49.514;8.294;2022-12-07T08:31:15;5.50;99.90
563;DHT22;266;49.514;8.294;2022-12-07T08:33:44;5.60;99.90
563;DHT22;266;49.514;8.294;2022-12-07T08:36:13;5.70;99.90
563;DHT22;266;49.514;8.294;2022-12-07T08:38:41;5.60;99.90
563;DHT22;266;49.514;8.294;2022-12-07T08:41:30;5.60;99.90
563;DHT22;266;49.514;8.294;2022-12-07T08:43:58;5.60;99.90
563;DHT22;266;49.514;8.294;2022-12-07T08:46:31;5.50;99.90
563;DHT22;266;49.514;8.294;2022-12-07T08:49:04;5.50;99.90
563;DHT22;266;49.514;8.294;2022-12-07T08:51:33;5.50;99.90
563;DHT22;266;49.514;8.294;2022-12-07T08:54:04;5.60;99.90
563;DHT22;266;49.514;8.294;2022-12-07T08:56:33;5.70;99.90
563;DHT22;266;49.514;8.294;2022-12-07T08:59:02;5.90;99.90
563;DHT22;266;49.514;8.294;2022-12-07T09:01:31;5.90;99.90
563;DHT22;266;49.514;8.294;2022-12-07T09:04:00;6.10;99.90
563;DHT22;266;49.514;8.294;2022-12-07T09:06:28;6.00;99.90
563;DHT22;266;49.514;8.294;2022-12-07T09:08:58;6.00;99.90
563;DHT22;266;49.514;8.294;2022-12-07T09:11:28;5.90;99.90
563;DHT22;266;49.514;8.294;2022-12-07T09:13:57;5.80;99.90
563;DHT22;266;49.514;8.294;2022-12-07T09:16:24;5.80;99.90
563;DHT22;266;49.514;8.294;2022-12-07T09:18:54;6.00;99.90
563;DHT22;266;49.514;8.294;2022-12-07T09:21:22;6.10;99.90
563;DHT22;266;49.514;8.294;2022-12-07T09:23:50;6.10;99.90
563;DHT22;266;49.514;8.294;2022-12-07T09:26:18;6.20;99.90
563;DHT22;266;49.514;8.294;2022-12-07T09:28:45;6.30;99.90
563;DHT22;266;49.514;8.294;2022-12-07T09:31:13;6.30;99.90
563;DHT22;266;49.514;8.294;2022-12-07T09:33:56;6.30;99.90
563;DHT22;266;49.514;8.294;2022-12-07T09:36:25;6.30;99.90
563;DHT22;266;49.514;8.294;2022-12-07T09:38:53;6.30;99.90
563;DHT22;266;49.514;8.294;2022-12-07T09:41:23;6.40;99.90
563;DHT22;266;49.514;8.294;2022-12-07T09:43:52;6.40;99.90
563;DHT22;266;49.514;8.294;2022-12-07T09:46:20;6.40;99.90
563;DHT22;266;49.514;8.294;2022-12-07T09:48:50;6.40;99.90
563;DHT22;266;49.514;8.294;2022-12-07T09:51:21;6.40;99.90
563;DHT22;266;49.514;8.294;2022-12-07T09:53:53;6.50;99.90
563;DHT22;266;49.514;8.294;2022-12-07T09:56:22;6.60;99.90
563;DHT22;266;49.514;8.294;2022-12-07T09:58:58;6.90;99.90
563;DHT22;266;49.514;8.294;2022-12-07T10:01:29;7.10;99.90
563;DHT22;266;49.514;8.294;2022-12-07T10:04:06;7.10;99.90
563;DHT22;266;49.514;8.294;2022-12-07T10:06:38;7.10;99.90
563;DHT22;266;49.514;8.294;2022-12-07T10:09:10;7.20;99.90
563;DHT22;266;49.514;8.294;2022-12-07T10:11:58;7.40;99.90
563;DHT22;266;49.514;8.294;2022-12-07T10:14:28;7.60;99.90
563;DHT22;266;49.514;8.294;2022-12-07T10:17:36;7.80;99.90
563;DHT22;266;49.514;8.294;2022-12-07T10:20:16;8.10;99.90
563;DHT22;266;49.514;8.294;2022-12-07T10:22:57;8.00;99.90
563;DHT22;266;49.514;8.294;2022-12-07T10:25:27;7.90;99.90
563;DHT22;266;49.514;8.294;2022-12-07T10:28:00;7.70;99.90
563;DHT22;266;49.514;8.294;2022-12-07T10:30:30;7.50;99.90
563;DHT22;266;49.514;8.294;2022-12-07T10:32:59;7.30;99.90
563;DHT22;266;49.514;8.294;2022-12-07T10:35:29;7.30;99.90
563;DHT22;266;49.514;8.294;2022-12-07T10:38:00;7.30;99.90
563;DHT22;266;49.514;8.294;2022-12-07T10:40:32;7.20;99.90
563;DHT22;266;49.514;8.294;2022-12-07T10:43:03;7.00;99.90
563;DHT22;266;49.514;8.294;2022-12-07T10:45:32;6.90;99.90
563;DHT22;266;49.514;8.294;2022-12-07T10:48:11;6.90;99.90
563;DHT22;266;49.514;8.294;2022-12-07T10:50:55;7.00;99.90
563;DHT22;266;49.514;8.294;2022-12-07T10:53:38;7.10;99.90
563;DHT22;266;49.514;8.294;2022-12-07T10:59:28;7.00;99.90
563;DHT22;266;49.514;8.294;2022-12-07T11:02:15;7.00;99.90
563;DHT22;266;49.514;8.294;2022-12-07T11:04:55;7.00;99.90
563;DHT22;266;49.514;8.294;2022-12-07T11:07:38;6.90;99.90
563;DHT22;266;49.514;8.294;2022-12-07T11:10:13;6.90;99.90
563;DHT22;266;49.514;8.294;2022-12-07T11:13:10;6.90;99.90
563;DHT22;266;49.514;8.294;2022-12-07T11:15:53;6.80;99.90
563;DHT22;266;49.514;8.294;2022-12-07T11:18:27;6.90;99.90
563;DHT22;266;49.514;8.294;2022-12-07T11:21:04;6.80;99.90
563;DHT22;266;49.514;8.294;2022-12-07T11:23:44;6.80;99.90
563;DHT22;266;49.514;8.294;2022-12-07T11:26:19;6.80;99.90
563;DHT22;266;49.514;8.294;2022-12-07T11:29:07;6.80;99.90
563;DHT22;266;49.514;8.294;2022-12-07T11:31:51;6.90;99.90
563;DHT22;266;49.514;8.294;2022-12-07T11:34:25;6.90;99.90
563;DHT22;266;49.514;8.294;2022-12-07T11:36:54;6.90;99.90
563;DHT22;266;49.514;8.294;2022-12-07T11:39:26;6.90;99.90
563;DHT22;266;49.514;8.294;2022-12-07T11:42:05;6.90;99.90
563;DHT22;266;49.514;8.294;2022-12-07T11:44:38;6.90;99.90
563;DHT22;266;49.514;8.294;2022-12-07T11:47:09;6.90;99.90
563;DHT22;266;49.514;8.294;2022-12-07T11:49:43;6.90;99.90
563;DHT22;266;49.514;8.294;2022-12-07T11:52:20;7.00;99.90
563;DHT22;266;49.514;8.294;2022-12-07T11:54:52;7.20;99.90
563;DHT22;266;49.514;8.294;2022-12-07T11:57:28;7.30;99.90
563;DHT22;266;49.514;8.294;2022-12-07T12:00:05;7.30;99.90
563;DHT22;266;49.514;8.294;2022-12-07T12:02:38;7.30;99.90
563;DHT22;266;49.514;8.294;2022-12-07T12:05:17;7.50;99.90
563;DHT22;266;49.514;8.294;2022-12-07T12:07:52;7.50;99.90
563;DHT22;266;49.514;8.294;2022-12-07T12:10:51;7.50;99.90
563;DHT22;266;49.514;8.294;2022-12-07T12:13:54;7.40;99.90
563;DHT22;266;49.514;8.294;2022-12-07T12:17:01;7.50;99.90
563;DHT22;266;49.514;8.294;2022-12-07T12:19:35;7.40;99.90
563;DHT22;266;49.514;8.294;2022-12-07T12:22:12;7.50;99.90
563;DHT22;266;49.514;8.294;2022-12-07T12:24:43;7.50;99.90
563;DHT22;266;49.514;8.294;2022-12-07T12:27:26;7.50;99.90
563;DHT22;266;49.514;8.294;2022-12-07T12:29:59;7.50;99.90
563;DHT22;266;49.514;8.294;2022-12-07T12:32:36;7.50;99.90
563;DHT22;266;49.514;8.294;2022-12-07T12:35:28;7.50;99.90
563;DHT22;266;49.514;8.294;2022-12-07T12:38:25;7.50;99.90
563;DHT22;266;49.514;8.294;2022-12-07T12:40:54;7.50;99.90
563;DHT22;266;49.514;8.294;2022-12-07T12:43:48;7.40;99.90
563;DHT22;266;49.514;8.294;2022-12-07T12:46:50;7.40;99.90
563;DHT22;266;49.514;8.294;2022-12-07T12:49:43;7.30;99.90
563;DHT22;266;49.514;8.294;2022-12-07T12:58:36;7.30;99.90
563;DHT22;266;49.514;8.294;2022-12-07T13:07:50;7.30;99.90
563;DHT22;266;49.514;8.294;2022-12-07T13:10:25;7.30;99.90
563;DHT22;266;49.514;8.294;2022-12-07T13:12:57;7.40;99.90
563;DHT22;266;49.514;8.294;2022-12-07T13:15:33;7.50;99.90
563;DHT22;266;49.514;8.294;2022-12-07T13:18:04;7.50;99.90
563;DHT22;266;49.514;8.294;2022-12-07T13:20:57;7.50;99.90
563;DHT22;266;49.514;8.294;2022-12-07T13:23:29;7.40;99.90
563;DHT22;266;49.514;8.294;2022-12-07T13:26:04;7.40;99.90
563;DHT22;266;49.514;8.294;2022-12-07T13:28:45;7.40;99.90
563;DHT22;266;49.514;8.294;2022-12-07T13:31:27;7.30;99.90
563;DHT22;266;49.514;8.294;2022-12-07T13:33:57;7.40;99.90
563;DHT22;266;49.514;8.294;2022-12-07T13:36:29;7.30;99.90
563;DHT22;266;49.514;8.294;2022-12-07T13:38:59;7.40;99.90
563;DHT22;266;49.514;8.294;2022-12-07T13:41:28;7.30;99.90
563;DHT22;266;49.514;8.294;2022-12-07T13:44:01;7.20;99.90
563;DHT22;266;49.514;8.294;2022-12-07T13:46:40;7.10;99.90
563;DHT22;266;49.514;8.294;2022-12-07T13:49:20;7.00;99.90
563;DHT22;266;49.514;8.294;2022-12-07T13:51:49;7.00;99.90
563;DHT22;266;49.514;8.294;2022-12-07T13:54:19;7.10;99.90
563;DHT22;266;49.514;8.294;2022-12-07T13:56:50;7.00;99.90
563;DHT22;266;49.514;8.294;2022-12-07T13:59:20;6.90;99.90
563;DHT22;266;49.514;8.294;2022-12-07T14:01:50;6.80;99.90
563;DHT22;266;49.514;8.294;2022-12-07T14:04:34;6.70;99.90
563;DHT22;266;49.514;8.294;2022-12-07T14:07:22;6.60;99.90
563;DHT22;266;49.514;8.294;2022-12-07T14:09:55;6.70;99.90
563;DHT22;266;49.514;8.294;2022-12-07T14:12:24;6.70;99.90
563;DHT22;266;49.514;8.294;2022-12-07T14:14:53;6.70;99.90
563;DHT22;266;49.514;8.294;2022-12-07T14:17:23;6.70;99.90
563;DHT22;266;49.514;8.294;2022-12-07T14:19:53;6.70;99.90
563;DHT22;266;49.514;8.294;2022-12-07T14:22:28;6.70;99.90
563;DHT22;266;49.514;8.294;2022-12-07T14:25:17;6.70;99.90
563;DHT22;266;49.514;8.294;2022-12-07T14:27:54;6.70;99.90
563;DHT22;266;49.514;8.294;2022-12-07T14:30:26;6.80;99.90
563;DHT22;266;49.514;8.294;2022-12-07T14:32:57;6.80;99.90
563;DHT22;266;49.514;8.294;2022-12-07T14:35:27;6.80;99.90
563;DHT22;266;49.514;8.294;2022-12-07T14:37:57;6.90;99.90
563;DHT22;266;49.514;8.294;2022-12-07T14:40:27;6.90;99.90
563;DHT22;266;49.514;8.294;2022-12-07T14:42:58;6.90;99.90
563;DHT22;266;49.514;8.294;2022-12-07T14:45:28;6.90;99.90
563;DHT22;266;49.514;8.294;2022-12-07T14:47:56;6.80;99.90
563;DHT22;266;49.514;8.294;2022-12-07T14:50:48;6.70;99.90
563;DHT22;266;49.514;8.294;2022-12-07T14:53:44;6.70;99.90
563;DHT22;266;49.514;8.294;2022-12-07T14:56:20;6.70;99.90
563;DHT22;266;49.514;8.294;2022-12-07T14:58:48;6.80;99.90
563;DHT22;266;49.514;8.294;2022-12-07T15:01:16;6.70;99.90
563;DHT22;266;49.514;8.294;2022-12-07T15:03:44;6.70;99.90
563;DHT22;266;49.514;8.294;2022-12-07T15:06:17;6.70;99.90
563;DHT22;266;49.514;8.294;2022-12-07T15:08:47;6.70;99.90
563;DHT22;266;49.514;8.294;2022-12-07T15:11:16;6.60;99.90
563;DHT22;266;49.514;8.294;2022-12-07T15:13:44;6.60;99.90
563;DHT22;266;49.514;8.294;2022-12-07T15:16:29;6.50;99.90
563;DHT22;266;49.514;8.294;2022-12-07T15:19:19;6.50;99.90
563;DHT22;266;49.514;8.294;2022-12-07T15:21:55;6.50;99.90
563;DHT22;266;49.514;8.294;2022-12-07T15:24:24;6.40;99.90
563;DHT22;266;49.514;8.294;2022-12-07T15:26:53;6.40;99.90
563;DHT22;266;49.514;8.294;2022-12-07T15:29:20;6.40;99.90
563;DHT22;266;49.514;8.294;2022-12-07T15:31:51;6.30;99.90
563;DHT22;266;49.514;8.294;2022-12-07T15:34:23;6.30;99.90
563;DHT22;266;49.514;8.294;2022-12-07T15:36:53;6.20;99.90
563;DHT22;266;49.514;8.294;2022-12-07T15:39:21;6.20;99.90
563;DHT22;266;49.514;8.294;2022-12-07T15:41:50;6.20;99.90
563;DHT22;266;49.514;8.294;2022-12-07T15:44:18;6.20;99.90
563;DHT22;266;49.514;8.294;2022-12-07T15:47:04;6.10;99.90
563;DHT22;266;49.514;8.294;2022-12-07T15:49:32;6.10;99.90
563;DHT22;266;49.514;8.294;2022-12-07T15:52:00;6.00;99.90
563;DHT22;266;49.514;8.294;2022-12-07T15:54:29;6.00;99.90
563;DHT22;266;49.514;8.294;2022-12-07T15:57:00;5.90;99.90
563;DHT22;266;49.514;8.294;2022-12-07T15:59:28;5.90;99.90
563;DHT22;266;49.514;8.294;2022-12-07T16:01:57;5.90;99.90
563;DHT22;266;49.514;8.294;2022-12-07T16:04:27;5.80;99.90
563;DHT22;266;49.514;8.294;2022-12-07T16:06:55;5.70;99.90
563;DHT22;266;49.514;8.294;2022-12-07T16:09:23;5.60;99.90
563;DHT22;266;49.514;8.294;2022-12-07T16:11:51;5.60;99.90
563;DHT22;266;49.514;8.294;2022-12-07T16:14:20;5.50;99.90
563;DHT22;266;49.514;8.294;2022-12-07T16:16:48;5.60;99.90
563;DHT22;266;49.514;8.294;2022-12-07T16:19:16;5.50;99.90
563;DHT22;266;49.514;8.294;2022-12-07T16:21:44;5.50;99.90
563;DHT22;266;49.514;8.294;2022-12-07T16:24:12;5.50;99.90
563;DHT22;266;49.514;8.294;2022-12-07T16:26:41;5.40;99.90
563;DHT22;266;49.514;8.294;2022-12-07T16:29:17;5.40;99.90
563;DHT22;266;49.514;8.294;2022-12-07T16:31:47;5.30;99.90
563;DHT22;266;49.514;8.294;2022-12-07T16:34:15;5.30;99.90
563;DHT22;266;49.514;8.294;2022-12-07T16:36:44;5.30;99.90
563;DHT22;266;49.514;8.294;2022-12-07T16:39:32;5.30;99.90
563;DHT22;266;49.514;8.294;2022-12-07T16:42:01;5.30;99.90
563;DHT22;266;49.514;8.294;2022-12-07T16:44:29;5.20;99.90
563;DHT22;266;49.514;8.294;2022-12-07T16:46:59;5.10;99.90
563;DHT22;266;49.514;8.294;2022-12-07T16:49:28;5.10;99.90
563;DHT22;266;49.514;8.294;2022-12-07T16:51:56;5.10;99.90
563;DHT22;266;49.514;8.294;2022-12-07T16:54:44;5.10;99.90
563;DHT22;266;49.514;8.294;2022-12-07T16:57:12;5.20;99.90
563;DHT22;266;49.514;8.294;2022-12-07T16:59:48;5.30;99.90
563;DHT22;266;49.514;8.294;2022-12-07T17:02:18;5.10;99.90
563;DHT22;266;49.514;8.294;2022-12-07T17:04:46;5.20;99.90
563;DHT22;266;49.514;8.294;2022-12-07T17:07:14;5.10;99.90
563;DHT22;266;49.514;8.294;2022-12-07T17:09:42;5.10;99.90
563;DHT22;266;49.514;8.294;2022-12-07T17:12:10;5.10;99.90
563;DHT22;266;49.514;8.294;2022-12-07T17:14:43;5.00;99.90
563;DHT22;266;49.514;8.294;2022-12-07T17:17:36;4.90;99.90
563;DHT22;266;49.514;8.294;2022-12-07T17:20:05;4.80;99.90
563;DHT22;266;49.514;8.294;2022-12-07T17:22:36;4.70;99.90
563;DHT22;266;49.514;8.294;2022-12-07T17:25:12;4.70;99.90
563;DHT22;266;49.514;8.294;2022-12-07T17:27:41;4.60;99.90
563;DHT22;266;49.514;8.294;2022-12-07T17:30:11;4.60;99.90
563;DHT22;266;49.514;8.294;2022-12-07T17:32:41;4.50;99.90
563;DHT22;266;49.514;8.294;2022-12-07T17:35:09;4.40;99.90
563;DHT22;266;49.514;8.294;2022-12-07T17:37:45;4.40;99.90
563;DHT22;266;49.514;8.294;2022-12-07T17:40:17;4.40;99.90
563;DHT22;266;49.514;8.294;2022-12-07T17:42:48;4.40;99.90
563;DHT22;266;49.514;8.294;2022-12-07T17:45:17;4.50;99.90